sensor_id;sensor_type;location;lat;lon;timestamp;P1;durP1;ratioP1;P2;durP2;ratioP2
13443;SDS011;6794;59.218;18.218;2023-09-30T00:01:58;17.23;;;11.80;;
13443;SDS011;6794;59.218;18.218;2023-09-30T00:04:24;17.33;;;12.60;;
13443;SDS011;6794;59.218;18.218;2023-09-30T00:06:52;15.95;;;12.43;;
13443;SDS011;6794;59.218;18.218;2023-09-30T00:09:18;15.40;;;11.63;;
13443;SDS011;6794;59.218;18.218;2023-09-30T00:11:44;11.90;;;9.43;;
13443;SDS011;6794;59.218;18.218;2023-09-30T00:14:10;14.33;;;9.50;;
13443;SDS011;6794;59.218;18.218;2023-09-30T00:16:36;13.73;;;9.43;;
13443;SDS011;6794;59.218;18.218;2023-09-30T00:19:02;12.83;;;8.40;;
13443;SDS011;6794;59.218;18.218;2023-09-30T00:21:29;10.63;;;7.97;;
13443;SDS011;6794;59.218;18.218;2023-09-30T00:23:55;10.17;;;6.77;;
13443;SDS011;6794;59.218;18.218;2023-09-30T00:26:21;10.68;;;8.70;;
13443;SDS011;6794;59.218;18.218;2023-09-30T00:28:47;10.20;;;7.90;;
13443;SDS011;6794;59.218;18.218;2023-09-30T00:31:13;7.77;;;6.80;;
13443;SDS011;6794;59.218;18.218;2023-09-30T00:33:39;7.37;;;6.27;;
13443;SDS011;6794;59.218;18.218;2023-09-30T00:36:06;8.27;;;6.77;;
13443;SDS011;6794;59.218;18.218;2023-09-30T00:38:32;6.97;;;5.70;;
13443;SDS011;6794;59.218;18.218;2023-09-30T00:40:58;7.87;;;6.37;;
13443;SDS011;6794;59.218;18.218;2023-09-30T00:43:24;8.63;;;6.60;;
13443;SDS011;6794;59.218;18.218;2023-09-30T00:45:52;9.10;;;7.70;;
13443;SDS011;6794;59.218;18.218;2023-09-30T00:48:22;8.23;;;6.43;;
13443;SDS011;6794;59.218;18.218;2023-09-30T00:50:48;9.70;;;6.73;;
13443;SDS011;6794;59.218;18.218;2023-09-30T00:53:14;9.37;;;6.90;;
13443;SDS011;6794;59.218;18.218;2023-09-30T00:55:40;9.23;;;7.13;;
13443;SDS011;6794;59.218;18.218;2023-09-30T00:58:07;10.63;;;6.77;;
13443;SDS011;6794;59.218;18.218;2023-09-30T01:00:33;9.40;;;5.77;;
13443;SDS011;6794;59.218;18.218;2023-09-30T01:03:00;10.20;;;6.90;;
13443;SDS011;6794;59.218;18.218;2023-09-30T01:05:29;7.40;;;6.60;;
13443;SDS011;6794;59.218;18.218;2023-09-30T01:07:55;8.53;;;6.80;;
13443;SDS011;6794;59.218;18.218;2023-09-30T01:10:21;8.07;;;7.18;;
13443;SDS011;6794;59.218;18.218;2023-09-30T01:12:47;9.17;;;7.30;;
13443;SDS011;6794;59.218;18.218;2023-09-30T01:15:13;6.77;;;5.40;;
13443;SDS011;6794;59.218;18.218;2023-09-30T01:17:39;8.20;;;5.13;;
13443;SDS011;6794;59.218;18.218;2023-09-30T01:20:05;8.63;;;5.37;;
13443;SDS011;6794;59.218;18.218;2023-09-30T01:22:33;6.50;;;3.77;;
13443;SDS011;6794;59.218;18.218;2023-09-30T01:24:59;6.83;;;4.00;;
13443;SDS011;6794;59.218;18.218;2023-09-30T01:27:25;5.60;;;3.60;;
13443;SDS011;6794;59.218;18.218;2023-09-30T01:29:51;4.47;;;3.60;;
13443;SDS011;6794;59.218;18.218;2023-09-30T01:32:17;4.85;;;4.20;;
13443;SDS011;6794;59.218;18.218;2023-09-30T01:34:43;3.60;;;3.20;;
13443;SDS011;6794;59.218;18.218;2023-09-30T01:37:09;3.30;;;2.40;;
13443;SDS011;6794;59.218;18.218;2023-09-30T01:39:36;3.97;;;2.90;;
13443;SDS011;6794;59.218;18.218;2023-09-30T01:42:02;4.40;;;2.40;;
13443;SDS011;6794;59.218;18.218;2023-09-30T01:44:28;2.87;;;2.20;;
13443;SDS011;6794;59.218;18.218;2023-09-30T01:46:54;2.37;;;2.10;;
13443;SDS011;6794;59.218;18.218;2023-09-30T01:49:20;3.50;;;2.27;;
13443;SDS011;6794;59.218;18.218;2023-09-30T01:51:49;4.27;;;2.13;;
13443;SDS011;6794;59.218;18.218;2023-09-30T01:54:15;2.57;;;2.07;;
13443;SDS011;6794;59.218;18.218;2023-09-30T01:56:41;2.63;;;2.27;;
13443;SDS011;6794;59.218;18.218;2023-09-30T01:59:07;3.50;;;2.60;;
13443;SDS011;6794;59.218;18.218;2023-09-30T02:01:33;4.23;;;2.50;;
13443;SDS011;6794;59.218;18.218;2023-09-30T02:03:59;3.50;;;2.20;;
13443;SDS011;6794;59.218;18.218;2023-09-30T02:06:25;4.83;;;2.30;;
13443;SDS011;6794;59.218;18.218;2023-09-30T02:08:51;4.60;;;2.20;;
13443;SDS011;6794;59.218;18.218;2023-09-30T02:11:17;3.63;;;1.90;;
13443;SDS011;6794;59.218;18.218;2023-09-30T02:13:43;3.13;;;2.07;;
13443;SDS011;6794;59.218;18.218;2023-09-30T02:16:13;2.23;;;1.80;;
13443;SDS011;6794;59.218;18.218;2023-09-30T02:18:39;4.60;;;2.50;;
13443;SDS011;6794;59.218;18.218;2023-09-30T02:21:06;2.63;;;2.10;;
13443;SDS011;6794;59.218;18.218;2023-09-30T02:23:34;3.17;;;2.20;;
13443;SDS011;6794;59.218;18.218;2023-09-30T02:26:00;5.50;;;2.30;;
13443;SDS011;6794;59.218;18.218;2023-09-30T02:28:27;4.43;;;2.47;;
13443;SDS011;6794;59.218;18.218;2023-09-30T02:30:53;5.77;;;2.73;;
13443;SDS011;6794;59.218;18.218;2023-09-30T02:33:19;4.90;;;2.63;;
13443;SDS011;6794;59.218;18.218;2023-09-30T02:35:45;6.07;;;2.37;;
13443;SDS011;6794;59.218;18.218;2023-09-30T02:38:11;5.13;;;2.77;;
13443;SDS011;6794;59.218;18.218;2023-09-30T02:40:40;5.90;;;2.47;;
13443;SDS011;6794;59.218;18.218;2023-09-30T02:43:10;4.57;;;2.30;;
13443;SDS011;6794;59.218;18.218;2023-09-30T02:45:36;6.93;;;2.40;;
13443;SDS011;6794;59.218;18.218;2023-09-30T02:48:02;6.20;;;2.40;;
13443;SDS011;6794;59.218;18.218;2023-09-30T02:50:28;4.87;;;2.63;;
13443;SDS011;6794;59.218;18.218;2023-09-30T02:52:54;4.97;;;2.20;;
13443;SDS011;6794;59.218;18.218;2023-09-30T02:55:20;6.13;;;2.67;;
13443;SDS011;6794;59.218;18.218;2023-09-30T02:57:46;7.17;;;2.80;;
13443;SDS011;6794;59.218;18.218;2023-09-30T03:00:12;4.27;;;2.40;;
13443;SDS011;6794;59.218;18.218;2023-09-30T03:02:48;5.23;;;2.20;;
13443;SDS011;6794;59.218;18.218;2023-09-30T03:05:14;7.27;;;2.50;;
13443;SDS011;6794;59.218;18.218;2023-09-30T03:07:40;5.13;;;2.60;;
13443;SDS011;6794;59.218;18.218;2023-09-30T03:10:06;5.47;;;2.47;;
13443;SDS011;6794;59.218;18.218;2023-09-30T03:12:34;3.00;;;2.10;;
13443;SDS011;6794;59.218;18.218;2023-09-30T03:15:00;6.40;;;2.70;;
13443;SDS011;6794;59.218;18.218;2023-09-30T03:17:32;7.10;;;3.17;;
13443;SDS011;6794;59.218;18.218;2023-09-30T03:19:58;5.73;;;3.00;;
13443;SDS011;6794;59.218;18.218;2023-09-30T03:22:25;5.97;;;2.50;;
13443;SDS011;6794;59.218;18.218;2023-09-30T03:24:52;5.00;;;2.47;;
13443;SDS011;6794;59.218;18.218;2023-09-30T03:27:19;9.07;;;2.93;;
13443;SDS011;6794;59.218;18.218;2023-09-30T03:29:45;5.37;;;2.50;;
13443;SDS011;6794;59.218;18.218;2023-09-30T03:32:11;3.60;;;2.37;;
13443;SDS011;6794;59.218;18.218;2023-09-30T03:34:37;5.03;;;2.90;;
13443;SDS011;6794;59.218;18.218;2023-09-30T03:37:09;9.13;;;2.90;;
13443;SDS011;6794;59.218;18.218;2023-09-30T03:39:35;7.23;;;2.53;;
13443;SDS011;6794;59.218;18.218;2023-09-30T03:42:01;8.70;;;3.00;;
13443;SDS011;6794;59.218;18.218;2023-09-30T03:44:28;5.50;;;2.73;;
13443;SDS011;6794;59.218;18.218;2023-09-30T03:46:54;4.87;;;2.90;;
13443;SDS011;6794;59.218;18.218;2023-09-30T03:49:22;7.65;;;3.17;;
13443;SDS011;6794;59.218;18.218;2023-09-30T03:51:48;11.53;;;3.00;;
13443;SDS011;6794;59.218;18.218;2023-09-30T03:54:15;8.27;;;2.77;;
13443;SDS011;6794;59.218;18.218;2023-09-30T03:56:42;8.07;;;3.07;;
13443;SDS011;6794;59.218;18.218;2023-09-30T03:59:08;7.80;;;2.90;;
13443;SDS011;6794;59.218;18.218;2023-09-30T04:01:34;6.83;;;3.47;;
13443;SDS011;6794;59.218;18.218;2023-09-30T04:04:05;6.93;;;2.90;;
13443;SDS011;6794;59.218;18.218;2023-09-30T04:06:32;8.33;;;3.13;;
13443;SDS011;6794;59.218;18.218;2023-09-30T04:08:58;8.63;;;3.43;;
13443;SDS011;6794;59.218;18.218;2023-09-30T04:11:24;9.13;;;3.67;;
13443;SDS011;6794;59.218;18.218;2023-09-30T04:13:50;9.63;;;3.27;;
13443;SDS011;6794;59.218;18.218;2023-09-30T04:16:16;9.53;;;3.30;;
13443;SDS011;6794;59.218;18.218;2023-09-30T04:18:44;9.87;;;3.67;;
13443;SDS011;6794;59.218;18.218;2023-09-30T04:21:11;5.60;;;2.87;;
13443;SDS011;6794;59.218;18.218;2023-09-30T04:23:38;8.57;;;3.50;;
13443;SDS011;6794;59.218;18.218;2023-09-30T04:26:04;12.27;;;3.67;;
13443;SDS011;6794;59.218;18.218;2023-09-30T04:28:30;9.70;;;3.40;;
13443;SDS011;6794;59.218;18.218;2023-09-30T04:30:56;9.80;;;3.23;;
13443;SDS011;6794;59.218;18.218;2023-09-30T04:33:23;6.37;;;3.57;;
13443;SDS011;6794;59.218;18.218;2023-09-30T04:35:50;10.43;;;3.33;;
13443;SDS011;6794;59.218;18.218;2023-09-30T04:38:16;9.40;;;2.97;;
13443;SDS011;6794;59.218;18.218;2023-09-30T04:40:42;6.63;;;3.57;;
13443;SDS011;6794;59.218;18.218;2023-09-30T04:43:09;7.90;;;3.33;;
13443;SDS011;6794;59.218;18.218;2023-09-30T04:45:36;11.37;;;3.63;;
13443;SDS011;6794;59.218;18.218;2023-09-30T04:48:02;8.80;;;3.37;;
13443;SDS011;6794;59.218;18.218;2023-09-30T04:50:29;9.20;;;3.33;;
13443;SDS011;6794;59.218;18.218;2023-09-30T04:52:55;8.30;;;3.63;;
13443;SDS011;6794;59.218;18.218;2023-09-30T04:55:22;11.20;;;3.57;;
13443;SDS011;6794;59.218;18.218;2023-09-30T04:57:49;10.83;;;3.77;;
13443;SDS011;6794;59.218;18.218;2023-09-30T05:00:15;10.32;;;3.60;;
13443;SDS011;6794;59.218;18.218;2023-09-30T05:02:49;9.83;;;3.67;;
13443;SDS011;6794;59.218;18.218;2023-09-30T05:05:15;10.37;;;3.67;;
13443;SDS011;6794;59.218;18.218;2023-09-30T05:07:41;9.03;;;3.30;;
13443;SDS011;6794;59.218;18.218;2023-09-30T05:10:07;11.97;;;3.60;;
13443;SDS011;6794;59.218;18.218;2023-09-30T05:12:38;13.20;;;3.67;;
13443;SDS011;6794;59.218;18.218;2023-09-30T05:15:05;11.43;;;4.10;;
13443;SDS011;6794;59.218;18.218;2023-09-30T05:17:32;7.47;;;3.17;;
13443;SDS011;6794;59.218;18.218;2023-09-30T05:19:58;9.37;;;4.00;;
13443;SDS011;6794;59.218;18.218;2023-09-30T05:22:24;10.20;;;3.83;;
13443;SDS011;6794;59.218;18.218;2023-09-30T05:24:51;8.00;;;3.10;;
13443;SDS011;6794;59.218;18.218;2023-09-30T05:27:18;9.67;;;3.50;;
13443;SDS011;6794;59.218;18.218;2023-09-30T05:29:44;8.60;;;3.40;;
13443;SDS011;6794;59.218;18.218;2023-09-30T05:32:10;9.07;;;3.50;;
13443;SDS011;6794;59.218;18.218;2023-09-30T05:34:37;11.43;;;3.37;;
13443;SDS011;6794;59.218;18.218;2023-09-30T05:37:04;13.47;;;3.73;;
13443;SDS011;6794;59.218;18.218;2023-09-30T05:39:30;11.95;;;3.85;;
13443;SDS011;6794;59.218;18.218;2023-09-30T05:41:56;12.33;;;3.93;;
13443;SDS011;6794;59.218;18.218;2023-09-30T05:44:22;7.03;;;3.23;;
13443;SDS011;6794;59.218;18.218;2023-09-30T05:46:51;9.20;;;3.63;;
13443;SDS011;6794;59.218;18.218;2023-09-30T05:49:17;6.10;;;2.77;;
13443;SDS011;6794;59.218;18.218;2023-09-30T05:51:44;10.03;;;3.60;;
13443;SDS011;6794;59.218;18.218;2023-09-30T05:54:11;10.03;;;3.37;;
13443;SDS011;6794;59.218;18.218;2023-09-30T05:56:37;11.07;;;3.17;;
13443;SDS011;6794;59.218;18.218;2023-09-30T05:59:04;13.83;;;3.50;;
13443;SDS011;6794;59.218;18.218;2023-09-30T06:01:31;13.27;;;3.87;;
13443;SDS011;6794;59.218;18.218;2023-09-30T06:03:58;7.20;;;2.87;;
13443;SDS011;6794;59.218;18.218;2023-09-30T06:06:24;7.83;;;3.27;;
13443;SDS011;6794;59.218;18.218;2023-09-30T06:08:51;8.77;;;3.00;;
13443;SDS011;6794;59.218;18.218;2023-09-30T06:13:44;8.60;;;2.83;;
13443;SDS011;6794;59.218;18.218;2023-09-30T06:16:11;8.20;;;3.17;;
13443;SDS011;6794;59.218;18.218;2023-09-30T06:18:37;10.13;;;3.20;;
13443;SDS011;6794;59.218;18.218;2023-09-30T06:21:03;9.60;;;3.42;;
13443;SDS011;6794;59.218;18.218;2023-09-30T06:23:30;11.13;;;3.53;;
13443;SDS011;6794;59.218;18.218;2023-09-30T06:25:56;10.10;;;3.20;;
13443;SDS011;6794;59.218;18.218;2023-09-30T06:28:22;9.57;;;3.00;;
13443;SDS011;6794;59.218;18.218;2023-09-30T06:30:51;10.73;;;3.20;;
13443;SDS011;6794;59.218;18.218;2023-09-30T06:33:17;9.00;;;3.03;;
13443;SDS011;6794;59.218;18.218;2023-09-30T06:35:43;9.83;;;3.17;;
13443;SDS011;6794;59.218;18.218;2023-09-30T06:38:21;9.07;;;3.20;;
13443;SDS011;6794;59.218;18.218;2023-09-30T06:40:47;10.50;;;3.63;;
13443;SDS011;6794;59.218;18.218;2023-09-30T06:43:14;12.37;;;3.03;;
13443;SDS011;6794;59.218;18.218;2023-09-30T06:45:41;10.63;;;3.10;;
13443;SDS011;6794;59.218;18.218;2023-09-30T06:48:07;9.20;;;2.77;;
13443;SDS011;6794;59.218;18.218;2023-09-30T06:50:37;9.90;;;2.73;;
13443;SDS011;6794;59.218;18.218;2023-09-30T06:53:03;8.70;;;3.00;;
13443;SDS011;6794;59.218;18.218;2023-09-30T06:55:30;8.73;;;3.00;;
13443;SDS011;6794;59.218;18.218;2023-09-30T06:57:56;11.50;;;3.03;;
13443;SDS011;6794;59.218;18.218;2023-09-30T07:00:22;9.43;;;3.20;;
13443;SDS011;6794;59.218;18.218;2023-09-30T07:02:50;13.77;;;3.37;;
13443;SDS011;6794;59.218;18.218;2023-09-30T07:05:16;10.53;;;3.10;;
13443;SDS011;6794;59.218;18.218;2023-09-30T07:07:42;7.03;;;2.90;;
13443;SDS011;6794;59.218;18.218;2023-09-30T07:10:09;11.97;;;3.30;;
13443;SDS011;6794;59.218;18.218;2023-09-30T07:12:36;9.23;;;2.97;;
13443;SDS011;6794;59.218;18.218;2023-09-30T07:15:02;11.20;;;2.87;;
13443;SDS011;6794;59.218;18.218;2023-09-30T07:17:29;8.30;;;2.90;;
13443;SDS011;6794;59.218;18.218;2023-09-30T07:19:55;8.93;;;3.00;;
13443;SDS011;6794;59.218;18.218;2023-09-30T07:22:21;9.80;;;2.87;;
13443;SDS011;6794;59.218;18.218;2023-09-30T07:24:47;12.43;;;3.73;;
13443;SDS011;6794;59.218;18.218;2023-09-30T07:27:13;10.80;;;3.30;;
13443;SDS011;6794;59.218;18.218;2023-09-30T07:29:39;8.83;;;2.40;;
13443;SDS011;6794;59.218;18.218;2023-09-30T07:32:06;13.00;;;2.70;;
13443;SDS011;6794;59.218;18.218;2023-09-30T07:34:33;13.60;;;3.33;;
13443;SDS011;6794;59.218;18.218;2023-09-30T07:37:00;10.97;;;2.70;;
13443;SDS011;6794;59.218;18.218;2023-09-30T07:39:26;15.00;;;3.13;;
13443;SDS011;6794;59.218;18.218;2023-09-30T07:41:52;13.57;;;3.47;;
13443;SDS011;6794;59.218;18.218;2023-09-30T07:44:18;10.63;;;3.27;;
13443;SDS011;6794;59.218;18.218;2023-09-30T07:46:44;9.37;;;2.67;;
13443;SDS011;6794;59.218;18.218;2023-09-30T07:49:10;9.43;;;2.67;;
13443;SDS011;6794;59.218;18.218;2023-09-30T07:51:36;11.30;;;2.73;;
13443;SDS011;6794;59.218;18.218;2023-09-30T07:54:04;9.30;;;2.90;;
13443;SDS011;6794;59.218;18.218;2023-09-30T07:56:30;12.80;;;3.00;;
13443;SDS011;6794;59.218;18.218;2023-09-30T07:58:56;7.77;;;2.57;;
13443;SDS011;6794;59.218;18.218;2023-09-30T08:01:22;10.93;;;2.87;;
13443;SDS011;6794;59.218;18.218;2023-09-30T08:03:48;13.43;;;3.37;;
13443;SDS011;6794;59.218;18.218;2023-09-30T08:06:15;10.20;;;3.27;;
13443;SDS011;6794;59.218;18.218;2023-09-30T08:08:41;6.63;;;2.37;;
13443;SDS011;6794;59.218;18.218;2023-09-30T08:11:07;8.20;;;2.73;;
13443;SDS011;6794;59.218;18.218;2023-09-30T08:13:33;13.13;;;3.03;;
13443;SDS011;6794;59.218;18.218;2023-09-30T08:15:59;9.67;;;2.97;;
13443;SDS011;6794;59.218;18.218;2023-09-30T08:18:25;13.30;;;2.90;;
13443;SDS011;6794;59.218;18.218;2023-09-30T08:20:51;14.43;;;3.47;;
13443;SDS011;6794;59.218;18.218;2023-09-30T08:23:17;11.65;;;3.47;;
13443;SDS011;6794;59.218;18.218;2023-09-30T08:25:43;8.77;;;3.27;;
13443;SDS011;6794;59.218;18.218;2023-09-30T08:28:10;11.20;;;3.37;;
13443;SDS011;6794;59.218;18.218;2023-09-30T08:30:36;10.83;;;3.27;;
13443;SDS011;6794;59.218;18.218;2023-09-30T08:33:02;9.03;;;3.03;;
13443;SDS011;6794;59.218;18.218;2023-09-30T08:35:29;7.43;;;2.70;;
13443;SDS011;6794;59.218;18.218;2023-09-30T08:37:56;8.27;;;2.83;;
13443;SDS011;6794;59.218;18.218;2023-09-30T08:40:23;9.67;;;2.77;;
13443;SDS011;6794;59.218;18.218;2023-09-30T08:42:51;11.43;;;3.00;;
13443;SDS011;6794;59.218;18.218;2023-09-30T08:45:18;10.43;;;2.93;;
13443;SDS011;6794;59.218;18.218;2023-09-30T08:47:44;12.77;;;3.07;;
13443;SDS011;6794;59.218;18.218;2023-09-30T08:50:11;11.37;;;3.17;;
13443;SDS011;6794;59.218;18.218;2023-09-30T08:52:39;9.43;;;3.10;;
13443;SDS011;6794;59.218;18.218;2023-09-30T08:55:06;9.27;;;3.23;;
13443;SDS011;6794;59.218;18.218;2023-09-30T08:57:33;11.37;;;2.90;;
13443;SDS011;6794;59.218;18.218;2023-09-30T09:00:02;11.87;;;3.47;;
13443;SDS011;6794;59.218;18.218;2023-09-30T09:02:28;10.82;;;3.17;;
13443;SDS011;6794;59.218;18.218;2023-09-30T09:04:54;14.80;;;3.53;;
13443;SDS011;6794;59.218;18.218;2023-09-30T09:07:20;10.47;;;3.17;;
13443;SDS011;6794;59.218;18.218;2023-09-30T09:10:05;11.47;;;3.43;;
13443;SDS011;6794;59.218;18.218;2023-09-30T09:12:33;7.20;;;2.80;;
13443;SDS011;6794;59.218;18.218;2023-09-30T09:14:59;10.83;;;3.07;;
13443;SDS011;6794;59.218;18.218;2023-09-30T09:17:39;9.27;;;2.93;;
13443;SDS011;6794;59.218;18.218;2023-09-30T09:20:06;7.97;;;2.93;;
13443;SDS011;6794;59.218;18.218;2023-09-30T09:22:41;8.93;;;3.03;;
13443;SDS011;6794;59.218;18.218;2023-09-30T09:25:07;11.87;;;2.93;;
13443;SDS011;6794;59.218;18.218;2023-09-30T09:27:34;8.97;;;2.70;;
13443;SDS011;6794;59.218;18.218;2023-09-30T09:35:21;11.87;;;3.37;;
13443;SDS011;6794;59.218;18.218;2023-09-30T09:40:23;7.43;;;2.50;;
13443;SDS011;6794;59.218;18.218;2023-09-30T09:42:49;7.80;;;2.43;;
13443;SDS011;6794;59.218;18.218;2023-09-30T09:45:19;12.68;;;3.33;;
13443;SDS011;6794;59.218;18.218;2023-09-30T09:47:47;7.30;;;2.43;;
13443;SDS011;6794;59.218;18.218;2023-09-30T09:50:14;5.50;;;2.20;;
13443;SDS011;6794;59.218;18.218;2023-09-30T09:52:41;6.77;;;2.77;;
13443;SDS011;6794;59.218;18.218;2023-09-30T09:55:10;9.30;;;2.40;;
13443;SDS011;6794;59.218;18.218;2023-09-30T09:57:37;7.47;;;2.87;;
13443;SDS011;6794;59.218;18.218;2023-09-30T10:00:03;8.73;;;2.63;;
13443;SDS011;6794;59.218;18.218;2023-09-30T10:02:38;9.83;;;2.90;;
13443;SDS011;6794;59.218;18.218;2023-09-30T10:05:05;6.93;;;2.77;;
13443;SDS011;6794;59.218;18.218;2023-09-30T10:08:14;9.97;;;2.90;;
13443;SDS011;6794;59.218;18.218;2023-09-30T10:10:21;22.60;;;12.23;;
13443;SDS011;6794;59.218;18.218;2023-09-30T10:12:48;11.93;;;5.23;;
13443;SDS011;6794;59.218;18.218;2023-09-30T10:15:56;15.20;;;8.53;;
13443;SDS011;6794;59.218;18.218;2023-09-30T10:18:10;9.00;;;2.97;;
13443;SDS011;6794;59.218;18.218;2023-09-30T10:20:39;17.13;;;11.90;;
13443;SDS011;6794;59.218;18.218;2023-09-30T10:23:19;9.80;;;4.43;;
13443;SDS011;6794;59.218;18.218;2023-09-30T10:25:46;5.77;;;2.93;;
13443;SDS011;6794;59.218;18.218;2023-09-30T10:31:16;9.83;;;2.60;;
13443;SDS011;6794;59.218;18.218;2023-09-30T10:36:39;9.87;;;3.00;;
13443;SDS011;6794;59.218;18.218;2023-09-30T10:39:10;13.97;;;5.03;;
13443;SDS011;6794;59.218;18.218;2023-09-30T10:46:51;5.93;;;2.27;;
13443;SDS011;6794;59.218;18.218;2023-09-30T10:51:50;6.17;;;2.17;;
13443;SDS011;6794;59.218;18.218;2023-09-30T10:54:21;7.10;;;1.57;;
13443;SDS011;6794;59.218;18.218;2023-09-30T10:56:50;5.50;;;1.30;;
13443;SDS011;6794;59.218;18.218;2023-09-30T10:59:24;10.53;;;4.00;;
13443;SDS011;6794;59.218;18.218;2023-09-30T11:01:50;7.37;;;1.80;;
13443;SDS011;6794;59.218;18.218;2023-09-30T11:04:17;8.27;;;2.43;;
13443;SDS011;6794;59.218;18.218;2023-09-30T11:06:44;5.03;;;2.00;;
13443;SDS011;6794;59.218;18.218;2023-09-30T11:09:14;5.47;;;2.23;;
13443;SDS011;6794;59.218;18.218;2023-09-30T11:14:21;5.93;;;2.00;;
13443;SDS011;6794;59.218;18.218;2023-09-30T11:16:48;5.63;;;1.70;;
13443;SDS011;6794;59.218;18.218;2023-09-30T11:19:14;9.13;;;2.27;;
13443;SDS011;6794;59.218;18.218;2023-09-30T11:21:40;7.27;;;1.70;;
13443;SDS011;6794;59.218;18.218;2023-09-30T11:24:08;4.63;;;1.77;;
13443;SDS011;6794;59.218;18.218;2023-09-30T11:26:34;5.57;;;1.97;;
13443;SDS011;6794;59.218;18.218;2023-09-30T11:29:10;8.67;;;1.90;;
13443;SDS011;6794;59.218;18.218;2023-09-30T11:31:40;6.80;;;2.13;;
13443;SDS011;6794;59.218;18.218;2023-09-30T11:34:07;4.53;;;1.60;;
13443;SDS011;6794;59.218;18.218;2023-09-30T11:36:37;8.63;;;2.53;;
13443;SDS011;6794;59.218;18.218;2023-09-30T11:39:03;3.87;;;1.53;;
13443;SDS011;6794;59.218;18.218;2023-09-30T11:41:33;7.43;;;2.33;;
13443;SDS011;6794;59.218;18.218;2023-09-30T11:49:23;6.93;;;2.20;;
13443;SDS011;6794;59.218;18.218;2023-09-30T11:51:49;7.57;;;1.80;;
13443;SDS011;6794;59.218;18.218;2023-09-30T11:54:16;6.07;;;1.90;;
13443;SDS011;6794;59.218;18.218;2023-09-30T11:56:42;5.03;;;1.47;;
13443;SDS011;6794;59.218;18.218;2023-09-30T11:59:08;6.10;;;1.83;;
13443;SDS011;6794;59.218;18.218;2023-09-30T12:01:36;10.00;;;2.73;;
13443;SDS011;6794;59.218;18.218;2023-09-30T12:04:02;6.30;;;2.50;;
13443;SDS011;6794;59.218;18.218;2023-09-30T12:06:28;7.70;;;1.50;;
13443;SDS011;6794;59.218;18.218;2023-09-30T12:08:54;4.63;;;2.33;;
13443;SDS011;6794;59.218;18.218;2023-09-30T12:11:20;6.10;;;2.47;;
13443;SDS011;6794;59.218;18.218;2023-09-30T12:13:49;3.10;;;1.90;;
13443;SDS011;6794;59.218;18.218;2023-09-30T12:16:15;7.13;;;2.30;;
13443;SDS011;6794;59.218;18.218;2023-09-30T12:18:41;6.33;;;1.90;;
13443;SDS011;6794;59.218;18.218;2023-09-30T12:21:09;5.97;;;2.00;;
13443;SDS011;6794;59.218;18.218;2023-09-30T12:23:35;7.03;;;2.07;;
13443;SDS011;6794;59.218;18.218;2023-09-30T12:26:02;4.53;;;1.73;;
13443;SDS011;6794;59.218;18.218;2023-09-30T12:28:30;5.53;;;2.43;;
13443;SDS011;6794;59.218;18.218;2023-09-30T12:30:57;5.67;;;3.10;;
13443;SDS011;6794;59.218;18.218;2023-09-30T12:33:23;4.47;;;1.90;;
13443;SDS011;6794;59.218;18.218;2023-09-30T12:35:49;6.30;;;2.50;;
13443;SDS011;6794;59.218;18.218;2023-09-30T12:38:16;6.43;;;2.50;;
13443;SDS011;6794;59.218;18.218;2023-09-30T12:40:42;7.10;;;2.10;;
13443;SDS011;6794;59.218;18.218;2023-09-30T12:43:08;4.60;;;1.83;;
13443;SDS011;6794;59.218;18.218;2023-09-30T12:45:35;6.40;;;1.70;;
13443;SDS011;6794;59.218;18.218;2023-09-30T12:48:03;7.43;;;1.80;;
13443;SDS011;6794;59.218;18.218;2023-09-30T12:50:29;5.57;;;1.83;;
13443;SDS011;6794;59.218;18.218;2023-09-30T12:52:55;6.20;;;1.90;;
13443;SDS011;6794;59.218;18.218;2023-09-30T12:55:21;7.30;;;1.77;;
13443;SDS011;6794;59.218;18.218;2023-09-30T12:57:47;9.10;;;1.90;;
13443;SDS011;6794;59.218;18.218;2023-09-30T13:00:14;5.80;;;1.60;;
13443;SDS011;6794;59.218;18.218;2023-09-30T13:02:40;5.10;;;1.70;;
13443;SDS011;6794;59.218;18.218;2023-09-30T13:05:06;6.27;;;2.10;;
13443;SDS011;6794;59.218;18.218;2023-09-30T13:07:33;4.60;;;3.37;;
13443;SDS011;6794;59.218;18.218;2023-09-30T13:09:59;7.97;;;2.50;;
13443;SDS011;6794;59.218;18.218;2023-09-30T13:12:26;4.37;;;1.80;;
13443;SDS011;6794;59.218;18.218;2023-09-30T13:14:52;6.43;;;1.90;;
13443;SDS011;6794;59.218;18.218;2023-09-30T13:17:21;7.40;;;2.77;;
13443;SDS011;6794;59.218;18.218;2023-09-30T13:19:48;5.27;;;2.00;;
13443;SDS011;6794;59.218;18.218;2023-09-30T13:22:14;3.90;;;1.50;;
13443;SDS011;6794;59.218;18.218;2023-09-30T13:24:41;6.33;;;1.70;;
13443;SDS011;6794;59.218;18.218;2023-09-30T13:27:07;5.90;;;1.73;;
13443;SDS011;6794;59.218;18.218;2023-09-30T13:29:33;4.43;;;1.20;;
13443;SDS011;6794;59.218;18.218;2023-09-30T13:32:00;5.07;;;1.13;;
13443;SDS011;6794;59.218;18.218;2023-09-30T13:34:26;6.17;;;2.60;;
13443;SDS011;6794;59.218;18.218;2023-09-30T13:36:52;4.60;;;1.20;;
13443;SDS011;6794;59.218;18.218;2023-09-30T13:39:18;5.13;;;1.40;;
13443;SDS011;6794;59.218;18.218;2023-09-30T13:41:44;3.47;;;1.30;;
13443;SDS011;6794;59.218;18.218;2023-09-30T13:44:12;3.47;;;1.30;;
13443;SDS011;6794;59.218;18.218;2023-09-30T13:46:38;6.50;;;1.43;;
13443;SDS011;6794;59.218;18.218;2023-09-30T13:49:04;3.10;;;1.40;;
13443;SDS011;6794;59.218;18.218;2023-09-30T13:51:30;4.67;;;1.23;;
13443;SDS011;6794;59.218;18.218;2023-09-30T13:53:56;4.97;;;1.50;;
13443;SDS011;6794;59.218;18.218;2023-09-30T13:56:22;6.00;;;1.77;;
13443;SDS011;6794;59.218;18.218;2023-09-30T13:58:48;4.97;;;1.43;;
13443;SDS011;6794;59.218;18.218;2023-09-30T14:01:14;10.03;;;1.77;;
13443;SDS011;6794;59.218;18.218;2023-09-30T14:03:40;5.67;;;1.30;;
13443;SDS011;6794;59.218;18.218;2023-09-30T14:06:10;4.07;;;1.90;;
13443;SDS011;6794;59.218;18.218;2023-09-30T14:08:37;5.33;;;1.20;;
13443;SDS011;6794;59.218;18.218;2023-09-30T14:11:03;5.73;;;1.50;;
13443;SDS011;6794;59.218;18.218;2023-09-30T14:13:29;2.47;;;1.20;;
13443;SDS011;6794;59.218;18.218;2023-09-30T14:15:55;3.80;;;1.23;;
13443;SDS011;6794;59.218;18.218;2023-09-30T14:18:21;5.80;;;1.70;;
13443;SDS011;6794;59.218;18.218;2023-09-30T14:20:48;4.40;;;1.40;;
13443;SDS011;6794;59.218;18.218;2023-09-30T14:23:15;1.93;;;1.20;;
13443;SDS011;6794;59.218;18.218;2023-09-30T14:25:41;3.00;;;1.20;;
13443;SDS011;6794;59.218;18.218;2023-09-30T14:28:07;3.23;;;1.70;;
13443;SDS011;6794;59.218;18.218;2023-09-30T14:30:33;3.40;;;1.40;;
13443;SDS011;6794;59.218;18.218;2023-09-30T14:32:59;3.30;;;1.10;;
13443;SDS011;6794;59.218;18.218;2023-09-30T14:35:25;4.00;;;1.63;;
13443;SDS011;6794;59.218;18.218;2023-09-30T14:37:51;2.13;;;0.90;;
13443;SDS011;6794;59.218;18.218;2023-09-30T14:40:19;3.77;;;1.27;;
13443;SDS011;6794;59.218;18.218;2023-09-30T14:42:45;4.40;;;1.37;;
13443;SDS011;6794;59.218;18.218;2023-09-30T14:45:11;4.28;;;1.42;;
13443;SDS011;6794;59.218;18.218;2023-09-30T14:47:37;4.47;;;1.23;;
13443;SDS011;6794;59.218;18.218;2023-09-30T14:50:06;3.67;;;1.37;;
13443;SDS011;6794;59.218;18.218;2023-09-30T14:52:32;3.23;;;1.40;;
13443;SDS011;6794;59.218;18.218;2023-09-30T14:54:58;6.03;;;1.77;;
13443;SDS011;6794;59.218;18.218;2023-09-30T14:57:25;3.63;;;1.80;;
13443;SDS011;6794;59.218;18.218;2023-09-30T14:59:51;7.37;;;3.37;;
13443;SDS011;6794;59.218;18.218;2023-09-30T15:02:17;4.70;;;2.60;;
13443;SDS011;6794;59.218;18.218;2023-09-30T15:04:43;6.07;;;2.00;;
13443;SDS011;6794;59.218;18.218;2023-09-30T15:07:09;6.33;;;2.43;;
13443;SDS011;6794;59.218;18.218;2023-09-30T15:09:37;6.33;;;3.10;;
13443;SDS011;6794;59.218;18.218;2023-09-30T15:12:03;4.20;;;1.87;;
13443;SDS011;6794;59.218;18.218;2023-09-30T15:14:30;3.37;;;1.30;;